Flight Track Log - Related Links

Times and Time Zones

All times are in EDT time to prevent confusion due to time zone crossing. See the TAM3541 flight status page for this flight to view local times or setup timezone preferences in your user account.

Time Position Orientation Groundspeed Altitude Reporting Facility
EDT Latitude Longitude Course Direction KTS MPH feet Rate Location/Type
Tue 04:46:00 PM -4.6484 -58.5847 138° Southeast  Level Estimated
Tue 04:47:00 PM -4.7430 -58.4984 138° Southeast  Level Estimated
Tue 04:48:00 PM -4.8376 -58.4120 138° Southeast  Level Estimated
Tue 04:49:00 PM -4.9322 -58.3256 138° Southeast  Level Estimated
Tue 04:50:00 PM -5.0268 -58.2391 138° Southeast  Level Estimated
Tue 04:51:00 PM -5.1213 -58.1527 138° Southeast  Level Estimated
Tue 04:52:00 PM -5.2159 -58.0662 138° Southeast  Level Estimated
Tue 04:53:00 PM -5.3104 -57.9797 138° Southeast  Level Estimated
Tue 04:54:00 PM -5.4049 -57.8931 138° Southeast  Level Estimated
Tue 04:55:00 PM -5.4995 -57.8066 138° Southeast  Level Estimated
Tue 04:56:00 PM -5.5940 -57.7200 138° Southeast  Level Estimated
Tue 04:57:00 PM -5.6884 -57.6334 138° Southeast  Level Estimated
Tue 04:58:00 PM -5.7829 -57.5467 138° Southeast  Level Estimated
Tue 04:59:00 PM -5.8774 -57.4600 138° Southeast  Level Estimated
Tue 05:00:00 PM -5.9718 -57.3733 138° Southeast  Level Estimated
Tue 05:01:00 PM -6.0663 -57.2866 138° Southeast  Level Estimated
Tue 05:02:00 PM -6.1607 -57.1998 138° Southeast  Level Estimated
Tue 05:03:00 PM -6.2551 -57.1130 138° Southeast  Level Estimated
Tue 05:04:00 PM -6.3495 -57.0262 138° Southeast  Level Estimated
Tue 05:05:00 PM -6.4439 -56.9393 138° Southeast  Level Estimated
Tue 05:06:00 PM -6.5383 -56.8524 138° Southeast  Level Estimated
Tue 05:07:00 PM -6.6326 -56.7655 138° Southeast  Level Estimated
Tue 05:08:00 PM -6.7270 -56.6785 138° Southeast  Level Estimated
Tue 05:09:00 PM -6.8213 -56.5915 138° Southeast  Level Estimated
Tue 05:10:00 PM -6.9156 -56.5045 138° Southeast  Level Estimated
Tue 05:11:00 PM -7.0099 -56.4175 137° Southeast  Level Estimated
Tue 05:12:00 PM -7.1041 -56.3304 137° Southeast  Level Estimated
Tue 05:13:00 PM -7.1984 -56.2432 137° Southeast  Level Estimated
Tue 05:14:00 PM -7.2927 -56.1561 137° Southeast  Level Estimated
Tue 05:15:00 PM -7.3869 -56.0689 137° Southeast  Level Estimated
Tue 05:16:00 PM -7.4811 -55.9816 137° Southeast  Level Estimated
Tue 05:17:00 PM -7.5753 -55.8943 137° Southeast  Level Estimated
Tue 05:18:00 PM -7.6694 -55.8070 137° Southeast  Level Estimated
Tue 05:19:00 PM -7.7636 -55.7197 137° Southeast  Level Estimated
Tue 05:20:00 PM -7.8577 -55.6323 137° Southeast  Level Estimated
Tue 05:21:00 PM -7.9519 -55.5448 137° Southeast  Level Estimated
Tue 05:22:00 PM -8.0460 -55.4573 137° Southeast  Level Estimated
Tue 05:23:00 PM -8.1400 -55.3698 137° Southeast  Level Estimated
Tue 05:24:00 PM -8.2341 -55.2822 137° Southeast  Level Estimated
Tue 05:25:00 PM -8.3281 -55.1946 137° Southeast  Level Estimated
Tue 05:26:00 PM -8.4222 -55.1070 137° Southeast  Level Estimated
Tue 05:27:00 PM -8.5162 -55.0193 137° Southeast  Level Estimated
Tue 05:28:00 PM -8.6102 -54.9316 137° Southeast  Level Estimated
Tue 05:29:00 PM -8.7042 -54.8438 137° Southeast  Level Estimated
Tue 05:30:00 PM -8.7981 -54.7560 137° Southeast  Level Estimated
Tue 05:31:00 PM -8.8920 -54.6681 137° Southeast  Level Estimated
Tue 05:32:00 PM -8.9859 -54.5802 137° Southeast  Level Estimated
Tue 05:33:00 PM -9.0798 -54.4923 137° Southeast  Level Estimated
Tue 05:34:00 PM -9.1737 -54.4043 137° Southeast  Level Estimated
Tue 05:35:00 PM -9.2675 -54.3162 137° Southeast  Level Estimated
Tue 05:36:00 PM -9.3614 -54.2281 137° Southeast  Level Estimated
Tue 05:37:00 PM -9.4551 -54.1400 137° Southeast  Level Estimated
Tue 05:38:00 PM -9.5489 -54.0518 137° Southeast  Level Estimated
Tue 05:39:00 PM -9.6427 -53.9636 137° Southeast  Level Estimated
Tue 05:40:00 PM -9.7364 -53.8753 137° Southeast  Level Estimated
Tue 05:41:00 PM -9.8301 -53.7870 137° Southeast  Level Estimated
Tue 05:42:00 PM -9.9238 -53.6986 137° Southeast  Level Estimated
Tue 05:43:00 PM -10.0175 -53.6102 137° Southeast  Level Estimated
Tue 05:44:00 PM -10.1111 -53.5217 137° Southeast  Level Estimated
Tue 05:45:00 PM -10.2047 -53.4331 137° Southeast  Level Estimated
Tue 05:46:00 PM -10.2983 -53.3445 137° Southeast  Level Estimated
Tue 05:47:00 PM -10.3919 -53.2559 137° Southeast  Level Estimated
Tue 05:48:00 PM -10.4854 -53.1672 137° Southeast  Level Estimated
Tue 05:49:00 PM -10.5790 -53.0784 137° Southeast  Level Estimated
Tue 05:50:00 PM -10.6725 -52.9897 137° Southeast  Level Estimated
Tue 05:51:00 PM -10.7659 -52.9008 137° Southeast  Level Estimated
Tue 05:52:00 PM -10.8594 -52.8119 137° Southeast  Level Estimated
Tue 05:53:00 PM -10.9528 -52.7229 137° Southeast  Level Estimated
Tue 05:54:00 PM -11.0462 -52.6339 137° Southeast  Level Estimated
Tue 05:55:00 PM -11.1396 -52.5448 137° Southeast  Level Estimated
Tue 05:56:00 PM -11.2329 -52.4557 137° Southeast  Level Estimated
Tue 05:57:00 PM -11.3262 -52.3665 137° Southeast  Level Estimated
Tue 05:58:00 PM -11.4195 -52.2772 137° Southeast  Level Estimated
Tue 05:59:00 PM -11.5127 -52.1879 137° Southeast  Level Estimated
Tue 06:00:00 PM -11.6060 -52.0985 137° Southeast  Level Estimated
Tue 06:01:00 PM -11.6992 -52.0091 137° Southeast  Level Estimated
Tue 06:02:00 PM -11.7924 -51.9196 137° Southeast  Level Estimated
Tue 06:03:00 PM -11.8855 -51.8301 137° Southeast  Level Estimated
Tue 06:04:00 PM -11.9786 -51.7405 137° Southeast  Level Estimated
Tue 06:05:00 PM -12.0717 -51.6508 137° Southeast  Level Estimated
Tue 06:06:00 PM -12.1648 -51.5610 137° Southeast  Level Estimated
Tue 06:07:00 PM -12.2578 -51.4712 137° Southeast  Level Estimated
Tue 06:08:00 PM -12.3509 -51.3814 137° Southeast  Level Estimated
Tue 06:09:00 PM -12.4438 -51.2915 137° Southeast  Level Estimated
Tue 06:10:00 PM -12.5368 -51.2015 137° Southeast  Level Estimated
Tue 06:11:00 PM -12.6297 -51.1114 137° Southeast  Level Estimated
Tue 06:12:00 PM -12.7226 -51.0213 137° Southeast  Level Estimated
Tue 06:13:00 PM -12.8154 -50.9311 137° Southeast  Level Estimated
Tue 06:14:00 PM -12.9083 -50.8408 137° Southeast  Level Estimated
Tue 06:15:00 PM -13.0011 -50.7505 137° Southeast  Level Estimated
Tue 06:16:00 PM -13.0938 -50.6601 137° Southeast  Level Estimated
Tue 06:17:00 PM -13.1866 -50.5697 136° Southeast  Level Estimated
Tue 06:18:00 PM -13.2793 -50.4791 136° Southeast  Level Estimated
Tue 06:19:00 PM -13.3719 -50.3885 136° Southeast  Level Estimated
Tue 06:20:00 PM -13.4646 -50.2979 136° Southeast  Level Estimated
Tue 06:21:00 PM -13.5572 -50.2071 136° Southeast  Level Estimated
Tue 06:22:00 PM -13.6497 -50.1163 136° Southeast  Level Estimated
Tue 06:23:00 PM -13.7423 -50.0254 136° Southeast  Level Estimated
Tue 06:24:00 PM -13.8348 -49.9345 136° Southeast  Level Estimated
Tue 06:25:00 PM -13.9273 -49.8435 136° Southeast  Level Estimated
Tue 06:26:00 PM -14.0197 -49.7524 136° Southeast  Level Estimated
Tue 06:27:00 PM -14.1121 -49.6612 136° Southeast  Level Estimated
Tue 06:28:00 PM -14.2045 -49.5700 136° Southeast  Level Estimated
Tue 06:29:00 PM -14.2968 -49.4786 136° Southeast  Level Estimated
Tue 06:30:00 PM -14.3891 -49.3872 136° Southeast  Level Estimated
Tue 06:31:00 PM -14.4814 -49.2958 136° Southeast  Level Estimated
Tue 06:32:00 PM -14.5736 -49.2042 136° Southeast  Level Estimated
Tue 06:33:00 PM -14.6658 -49.1126 136° Southeast  Level Estimated
Tue 06:34:00 PM -14.7579 -49.0209 136° Southeast  Level Estimated
Tue 06:35:00 PM -14.8501 -48.9291 136° Southeast  Level Estimated
Tue 06:36:00 PM -14.9422 -48.8373 136° Southeast  Level Estimated
Tue 06:37:00 PM -15.0342 -48.7454 136° Southeast  Level Estimated
Tue 06:38:00 PM -15.1262 -48.6534 136° Southeast  Level Estimated
Tue 06:39:00 PM -15.2182 -48.5613 136° Southeast  Level Estimated
Tue 06:40:00 PM -15.3101 -48.4691 136° Southeast  Level Estimated
Tue 06:41:00 PM -15.4020 -48.3768 136° Southeast  Level Estimated
Tue 06:42:00 PM -15.4939 -48.2845 136° Southeast  Level Estimated
Tue 06:43:00 PM -15.5857 -48.1921 136° Southeast  Level Estimated
Tue 06:44:00 PM -15.6775 -48.0996 136° Southeast  Level Estimated
Tue 06:45:00 PM -15.7692 -48.0070 136° Southeast  Level Estimated
Tue 06:46:00 PM -15.8609 -47.9143 136° Southeast  Level Estimated
Tue 06:47:00 PM -15.8626 -47.9127 136° Southeast  Level Estimated
Tue 06:48:00 PM -15.8626 -47.9127 128° Southeast  Level Estimated
Tue 06:49:00 PM -15.8626 -47.9127 128° Southeast  Level Estimated
Tue 06:50:00 PM -15.8626 -47.9127 128° Southeast  Level Estimated
Tue 06:51:00 PM -15.8626 -47.9127 128° Southeast  Level Estimated
Tue 06:52:00 PM -15.8626 -47.9127 128° Southeast  Level Estimated
Tue 06:53:00 PM -15.8626 -47.9127 128° Southeast  Level Estimated
Tue 06:54:00 PM -15.8626 -47.9127 128° Southeast  Level Estimated
Tue 06:55:00 PM -15.8626 -47.9127 128° Southeast  Level Estimated
Tue 06:56:00 PM -15.8626 -47.9127 128° Southeast  Level Estimated
Tue 06:57:00 PM -15.8626 -47.9127 128° Southeast  Level Estimated
Tue 06:58:00 PM -15.8626 -47.9127 128° Southeast  Level Estimated
Tue 06:59:00 PM -15.8626 -47.9127 128° Southeast  Level Estimated
Tue 07:00:00 PM -15.8626 -47.9127 128° Southeast  Level Estimated
Tue 07:01:00 PM -15.8626 -47.9127 128° Southeast  Level Estimated
Tue 07:02:00 PM -15.8626 -47.9127 128° Southeast  Level Estimated

Login

Don't have an account? Register now (free) for customized features, flight alerts, and more!